Borden Springs, Alabama
Current Conditions -  °F | °C
As of 5:53 AM on Thursday 23 Oct 2014 (Local Time) from KANB Reporting Station
Clear Clear  
Wind Chill: 38°   Ceiling: Unl
Heat Index: 41°   Visibility: 10mi
Dew Point: 39°   Wind: 5mph
Humidity: 93%   Direction: 70°ENE
Pressure: 30.16"   Gusts: NA
Location:  33.8638°N, 85.6035°W
Report Text: KANB 231053Z AUTO 07004KT 10SM CLR 05/04 A3016 RMK AO2 SLP214 T00500039
Loading
Personal Weather Stations






























Interactive Weather Map
Tropical Storm Tracking
New forecast layout! Learn more

10-Day Weather Forecast

Advertisements
Track Severe Weather on mobile